sensor_id;sensor_type;location;lat;lon;timestamp;pressure;altitude;pressure_sealevel;temperature;humidity
58975;BME280;44751;52.236;5.178;2022-12-07T00:01:22;101683.19;;;3.36;100.00
58975;BME280;44751;52.236;5.178;2022-12-07T00:03:50;101688.97;;;3.30;100.00
58975;BME280;44751;52.236;5.178;2022-12-07T00:06:18;101687.28;;;3.29;100.00
58975;BME280;44751;52.236;5.178;2022-12-07T00:08:46;101686.84;;;3.22;100.00
58975;BME280;44751;52.236;5.178;2022-12-07T00:11:18;101681.50;;;3.22;100.00
58975;BME280;44751;52.236;5.178;2022-12-07T00:13:46;101682.69;;;3.18;100.00
58975;BME280;44751;52.236;5.178;2022-12-07T00:16:15;101682.38;;;3.23;100.00
58975;BME280;44751;52.236;5.178;2022-12-07T00:18:42;101675.00;;;3.27;100.00
58975;BME280;44751;52.236;5.178;2022-12-07T00:21:13;101685.56;;;3.28;100.00
58975;BME280;44751;52.236;5.178;2022-12-07T00:23:40;101673.41;;;3.24;100.00
58975;BME280;44751;52.236;5.178;2022-12-07T00:26:15;101670.53;;;3.27;100.00
58975;BME280;44751;52.236;5.178;2022-12-07T00:28:46;101667.66;;;3.17;100.00
58975;BME280;44751;52.236;5.178;2022-12-07T00:31:15;101665.56;;;3.09;100.00
58975;BME280;44751;52.236;5.178;2022-12-07T00:33:41;101665.16;;;3.03;100.00
58975;BME280;44751;52.236;5.178;2022-12-07T00:36:11;101662.34;;;3.04;100.00
58975;BME280;44751;52.236;5.178;2022-12-07T00:38:39;101657.28;;;2.88;100.00
58975;BME280;44751;52.236;5.178;2022-12-07T00:41:08;101654.31;;;2.80;100.00
58975;BME280;44751;52.236;5.178;2022-12-07T00:43:35;101649.94;;;2.79;100.00
58975;BME280;44751;52.236;5.178;2022-12-07T00:46:06;101654.63;;;2.75;100.00
58975;BME280;44751;52.236;5.178;2022-12-07T00:48:33;101648.13;;;2.66;100.00
58975;BME280;44751;52.236;5.178;2022-12-07T00:51:00;101656.56;;;2.60;100.00
58975;BME280;44751;52.236;5.178;2022-12-07T00:53:27;101660.06;;;2.48;100.00
58975;BME280;44751;52.236;5.178;2022-12-07T00:55:53;101656.41;;;2.36;100.00
58975;BME280;44751;52.236;5.178;2022-12-07T00:58:23;101650.47;;;2.45;100.00
58975;BME280;44751;52.236;5.178;2022-12-07T01:00:49;101655.16;;;2.41;100.00
58975;BME280;44751;52.236;5.178;2022-12-07T01:03:16;101655.59;;;2.35;100.00
58975;BME280;44751;52.236;5.178;2022-12-07T01:05:53;101660.69;;;2.25;100.00
58975;BME280;44751;52.236;5.178;2022-12-07T01:08:21;101655.25;;;2.27;100.00
58975;BME280;44751;52.236;5.178;2022-12-07T01:10:48;101647.28;;;2.27;100.00
58975;BME280;44751;52.236;5.178;2022-12-07T01:13:15;101645.34;;;2.29;100.00
58975;BME280;44751;52.236;5.178;2022-12-07T01:15:43;101639.06;;;2.30;100.00
58975;BME280;44751;52.236;5.178;2022-12-07T01:18:10;101655.34;;;2.25;100.00
58975;BME280;44751;52.236;5.178;2022-12-07T01:20:37;101654.94;;;2.18;100.00
58975;BME280;44751;52.236;5.178;2022-12-07T01:23:04;101652.38;;;2.17;100.00
58975;BME280;44751;52.236;5.178;2022-12-07T01:25:31;101653.19;;;2.17;100.00
58975;BME280;44751;52.236;5.178;2022-12-07T01:27:57;101656.09;;;2.14;100.00
58975;BME280;44751;52.236;5.178;2022-12-07T01:30:24;101659.25;;;2.06;100.00
58975;BME280;44751;52.236;5.178;2022-12-07T01:32:50;101661.19;;;2.04;100.00
58975;BME280;44751;52.236;5.178;2022-12-07T01:35:16;101655.09;;;2.02;100.00
58975;BME280;44751;52.236;5.178;2022-12-07T01:37:43;101652.97;;;2.08;100.00
58975;BME280;44751;52.236;5.178;2022-12-07T01:40:10;101656.47;;;1.95;100.00
58975;BME280;44751;52.236;5.178;2022-12-07T01:42:36;101663.75;;;2.06;100.00
58975;BME280;44751;52.236;5.178;2022-12-07T01:47:48;101672.72;;;2.31;100.00
58975;BME280;44751;52.236;5.178;2022-12-07T01:50:16;101666.56;;;2.43;100.00
58975;BME280;44751;52.236;5.178;2022-12-07T01:52:44;101660.50;;;2.67;100.00
58975;BME280;44751;52.236;5.178;2022-12-07T01:55:13;101659.31;;;2.84;100.00
58975;BME280;44751;52.236;5.178;2022-12-07T01:57:43;101648.09;;;2.92;100.00
58975;BME280;44751;52.236;5.178;2022-12-07T02:00:12;101649.38;;;3.00;100.00
58975;BME280;44751;52.236;5.178;2022-12-07T02:02:49;101646.34;;;3.04;100.00
58975;BME280;44751;52.236;5.178;2022-12-07T02:05:17;101641.88;;;3.05;100.00
58975;BME280;44751;52.236;5.178;2022-12-07T02:07:46;101645.41;;;3.05;100.00
58975;BME280;44751;52.236;5.178;2022-12-07T02:10:20;101644.03;;;3.00;100.00
58975;BME280;44751;52.236;5.178;2022-12-07T02:12:55;101645.94;;;2.97;100.00
58975;BME280;44751;52.236;5.178;2022-12-07T02:15:31;101643.94;;;2.88;100.00
58975;BME280;44751;52.236;5.178;2022-12-07T02:18:08;101635.00;;;2.76;100.00
58975;BME280;44751;52.236;5.178;2022-12-07T02:20:59;101638.00;;;2.84;100.00
58975;BME280;44751;52.236;5.178;2022-12-07T02:27:49;101630.09;;;2.83;100.00
58975;BME280;44751;52.236;5.178;2022-12-07T02:29:49;101638.00;;;2.71;100.00
58975;BME280;44751;52.236;5.178;2022-12-07T02:35:30;101634.16;;;2.76;100.00
58975;BME280;44751;52.236;5.178;2022-12-07T02:38:04;101631.19;;;2.67;100.00
58975;BME280;44751;52.236;5.178;2022-12-07T02:40:46;101628.19;;;2.72;100.00
58975;BME280;44751;52.236;5.178;2022-12-07T02:43:19;101627.97;;;2.62;100.00
58975;BME280;44751;52.236;5.178;2022-12-07T02:45:50;101628.41;;;2.56;100.00
58975;BME280;44751;52.236;5.178;2022-12-07T02:48:18;101635.84;;;2.64;100.00
58975;BME280;44751;52.236;5.178;2022-12-07T02:50:50;101640.88;;;2.68;100.00
58975;BME280;44751;52.236;5.178;2022-12-07T02:55:56;101625.00;;;2.80;100.00
58975;BME280;44751;52.236;5.178;2022-12-07T02:59:32;101627.19;;;2.86;100.00
58975;BME280;44751;52.236;5.178;2022-12-07T03:06:56;101628.06;;;2.74;100.00
58975;BME280;44751;52.236;5.178;2022-12-07T03:09:33;101627.66;;;2.67;100.00
58975;BME280;44751;52.236;5.178;2022-12-07T03:12:16;101621.50;;;2.66;100.00
58975;BME280;44751;52.236;5.178;2022-12-07T03:14:53;101627.13;;;2.49;100.00
58975;BME280;44751;52.236;5.178;2022-12-07T03:17:26;101619.69;;;2.41;100.00
58975;BME280;44751;52.236;5.178;2022-12-07T03:19:58;101619.13;;;2.36;100.00
58975;BME280;44751;52.236;5.178;2022-12-07T03:22:27;101621.34;;;2.16;100.00
58975;BME280;44751;52.236;5.178;2022-12-07T03:25:01;101621.78;;;2.10;100.00
58975;BME280;44751;52.236;5.178;2022-12-07T03:27:44;101627.13;;;2.10;100.00
58975;BME280;44751;52.236;5.178;2022-12-07T03:30:17;101624.13;;;2.01;100.00
58975;BME280;44751;52.236;5.178;2022-12-07T03:33:03;101627.41;;;1.92;100.00
58975;BME280;44751;52.236;5.178;2022-12-07T03:35:38;101635.00;;;2.11;100.00
58975;BME280;44751;52.236;5.178;2022-12-07T03:38:16;101624.91;;;2.42;100.00
58975;BME280;44751;52.236;5.178;2022-12-07T03:40:48;101628.63;;;2.53;100.00
58975;BME280;44751;52.236;5.178;2022-12-07T03:43:17;101630.78;;;2.61;100.00
58975;BME280;44751;52.236;5.178;2022-12-07T03:48:24;101620.31;;;2.70;100.00
58975;BME280;44751;52.236;5.178;2022-12-07T03:51:09;101614.75;;;2.74;100.00
58975;BME280;44751;52.236;5.178;2022-12-07T03:53:52;101606.75;;;2.87;100.00
58975;BME280;44751;52.236;5.178;2022-12-07T03:56:22;101603.16;;;2.75;100.00
58975;BME280;44751;52.236;5.178;2022-12-07T03:58:49;101612.50;;;2.80;100.00
58975;BME280;44751;52.236;5.178;2022-12-07T04:01:17;101602.91;;;2.78;100.00
58975;BME280;44751;52.236;5.178;2022-12-07T04:03:44;101604.94;;;2.87;100.00
58975;BME280;44751;52.236;5.178;2022-12-07T04:06:10;101601.09;;;2.78;100.00
58975;BME280;44751;52.236;5.178;2022-12-07T04:08:36;101593.31;;;2.75;100.00
58975;BME280;44751;52.236;5.178;2022-12-07T04:11:06;101599.22;;;2.67;100.00
58975;BME280;44751;52.236;5.178;2022-12-07T04:13:32;101597.38;;;2.68;100.00
58975;BME280;44751;52.236;5.178;2022-12-07T04:16:19;101604.09;;;2.74;100.00
58975;BME280;44751;52.236;5.178;2022-12-07T04:18:45;101608.25;;;2.78;100.00
58975;BME280;44751;52.236;5.178;2022-12-07T04:21:12;101622.75;;;2.74;100.00
58975;BME280;44751;52.236;5.178;2022-12-07T04:23:38;101646.00;;;2.84;100.00
58975;BME280;44751;52.236;5.178;2022-12-07T04:26:05;101628.88;;;3.00;100.00
58975;BME280;44751;52.236;5.178;2022-12-07T04:28:31;101605.63;;;3.15;100.00
58975;BME280;44751;52.236;5.178;2022-12-07T04:30:57;101585.31;;;3.13;100.00
58975;BME280;44751;52.236;5.178;2022-12-07T04:33:24;101585.78;;;3.06;100.00
58975;BME280;44751;52.236;5.178;2022-12-07T04:35:50;101600.09;;;3.05;100.00
58975;BME280;44751;52.236;5.178;2022-12-07T04:38:16;101598.25;;;3.06;100.00
58975;BME280;44751;52.236;5.178;2022-12-07T04:40:43;101602.88;;;3.04;100.00
58975;BME280;44751;52.236;5.178;2022-12-07T04:43:09;101600.34;;;2.89;100.00
58975;BME280;44751;52.236;5.178;2022-12-07T04:45:36;101592.03;;;2.81;100.00
58975;BME280;44751;52.236;5.178;2022-12-07T04:48:03;101593.22;;;2.77;100.00
58975;BME280;44751;52.236;5.178;2022-12-07T04:50:30;101588.22;;;2.72;100.00
58975;BME280;44751;52.236;5.178;2022-12-07T04:52:56;101598.91;;;2.59;100.00
58975;BME280;44751;52.236;5.178;2022-12-07T04:55:22;101586.66;;;2.56;100.00
58975;BME280;44751;52.236;5.178;2022-12-07T04:57:49;101587.69;;;2.54;100.00
58975;BME280;44751;52.236;5.178;2022-12-07T05:00:15;101583.25;;;2.54;100.00
58975;BME280;44751;52.236;5.178;2022-12-07T05:02:44;101590.28;;;2.42;100.00
58975;BME280;44751;52.236;5.178;2022-12-07T05:05:11;101590.06;;;2.45;100.00
58975;BME280;44751;52.236;5.178;2022-12-07T05:07:37;101584.00;;;2.43;100.00
58975;BME280;44751;52.236;5.178;2022-12-07T05:10:04;101584.84;;;2.31;100.00
58975;BME280;44751;52.236;5.178;2022-12-07T05:12:31;101585.69;;;2.31;100.00
58975;BME280;44751;52.236;5.178;2022-12-07T05:14:58;101583.13;;;2.30;100.00
58975;BME280;44751;52.236;5.178;2022-12-07T05:17:24;101580.38;;;2.18;100.00
58975;BME280;44751;52.236;5.178;2022-12-07T05:19:50;101582.94;;;2.20;100.00
58975;BME280;44751;52.236;5.178;2022-12-07T05:22:17;101589.41;;;2.16;100.00
58975;BME280;44751;52.236;5.178;2022-12-07T05:24:43;101586.22;;;2.11;100.00
58975;BME280;44751;52.236;5.178;2022-12-07T05:27:09;101588.06;;;2.10;100.00
58975;BME280;44751;52.236;5.178;2022-12-07T05:29:38;101585.25;;;2.12;100.00
58975;BME280;44751;52.236;5.178;2022-12-07T05:32:04;101588.88;;;2.11;100.00
58975;BME280;44751;52.236;5.178;2022-12-07T05:34:31;101585.59;;;2.07;100.00
58975;BME280;44751;52.236;5.178;2022-12-07T05:36:57;101581.88;;;2.10;100.00
58975;BME280;44751;52.236;5.178;2022-12-07T05:39:24;101574.97;;;2.20;100.00
58975;BME280;44751;52.236;5.178;2022-12-07T05:41:50;101582.00;;;2.34;100.00
58975;BME280;44751;52.236;5.178;2022-12-07T05:44:34;101588.88;;;2.50;100.00
58975;BME280;44751;52.236;5.178;2022-12-07T05:47:00;101590.16;;;2.57;100.00
58975;BME280;44751;52.236;5.178;2022-12-07T05:49:26;101594.09;;;2.64;100.00
58975;BME280;44751;52.236;5.178;2022-12-07T05:51:53;101581.06;;;2.73;100.00
58975;BME280;44751;52.236;5.178;2022-12-07T05:54:19;101582.03;;;2.71;100.00
58975;BME280;44751;52.236;5.178;2022-12-07T05:56:46;101581.06;;;2.73;100.00
58975;BME280;44751;52.236;5.178;2022-12-07T05:59:12;101576.63;;;2.73;100.00
58975;BME280;44751;52.236;5.178;2022-12-07T06:01:55;101577.84;;;2.80;100.00
58975;BME280;44751;52.236;5.178;2022-12-07T06:04:23;101581.28;;;2.82;100.00
58975;BME280;44751;52.236;5.178;2022-12-07T06:06:50;101572.19;;;2.85;100.00
58975;BME280;44751;52.236;5.178;2022-12-07T06:09:18;101574.88;;;2.85;100.00
58975;BME280;44751;52.236;5.178;2022-12-07T06:11:45;101581.94;;;2.73;100.00
58975;BME280;44751;52.236;5.178;2022-12-07T06:14:29;101586.84;;;2.66;100.00
58975;BME280;44751;52.236;5.178;2022-12-07T06:16:55;101594.41;;;2.60;100.00
58975;BME280;44751;52.236;5.178;2022-12-07T06:19:22;101574.69;;;2.62;100.00
58975;BME280;44751;52.236;5.178;2022-12-07T06:21:50;101580.16;;;2.61;100.00
58975;BME280;44751;52.236;5.178;2022-12-07T06:24:17;101582.06;;;2.58;100.00
58975;BME280;44751;52.236;5.178;2022-12-07T06:26:44;101579.69;;;2.67;100.00
58975;BME280;44751;52.236;5.178;2022-12-07T06:29:11;101574.16;;;2.70;100.00
58975;BME280;44751;52.236;5.178;2022-12-07T06:31:39;101576.72;;;2.58;100.00
58975;BME280;44751;52.236;5.178;2022-12-07T06:34:09;101575.22;;;2.67;100.00
58975;BME280;44751;52.236;5.178;2022-12-07T06:36:37;101580.78;;;2.64;100.00
58975;BME280;44751;52.236;5.178;2022-12-07T06:39:03;101583.34;;;2.66;100.00
58975;BME280;44751;52.236;5.178;2022-12-07T06:41:31;101578.63;;;2.69;100.00
58975;BME280;44751;52.236;5.178;2022-12-07T06:43:57;101585.69;;;2.70;100.00
58975;BME280;44751;52.236;5.178;2022-12-07T06:46:24;101590.81;;;2.61;100.00
58975;BME280;44751;52.236;5.178;2022-12-07T06:48:50;101591.84;;;2.71;100.00
58975;BME280;44751;52.236;5.178;2022-12-07T06:51:16;101585.03;;;2.67;100.00
58975;BME280;44751;52.236;5.178;2022-12-07T06:53:43;101579.69;;;2.67;100.00
58975;BME280;44751;52.236;5.178;2022-12-07T06:56:09;101576.63;;;2.60;100.00
58975;BME280;44751;52.236;5.178;2022-12-07T06:58:38;101570.75;;;2.68;100.00
58975;BME280;44751;52.236;5.178;2022-12-07T07:01:13;101578.00;;;2.79;100.00
58975;BME280;44751;52.236;5.178;2022-12-07T07:03:40;101574.78;;;2.74;100.00
58975;BME280;44751;52.236;5.178;2022-12-07T07:06:07;101580.09;;;2.74;100.00
58975;BME280;44751;52.236;5.178;2022-12-07T07:08:35;101578.00;;;2.66;100.00
58975;BME280;44751;52.236;5.178;2022-12-07T07:11:06;101580.69;;;2.53;100.00
58975;BME280;44751;52.236;5.178;2022-12-07T07:13:33;101577.09;;;2.41;100.00
58975;BME280;44751;52.236;5.178;2022-12-07T07:16:00;101577.38;;;2.49;100.00
58975;BME280;44751;52.236;5.178;2022-12-07T07:18:27;101581.13;;;2.34;100.00
58975;BME280;44751;52.236;5.178;2022-12-07T07:20:54;101580.59;;;2.28;100.00
58975;BME280;44751;52.236;5.178;2022-12-07T07:23:23;101579.53;;;2.31;100.00
58975;BME280;44751;52.236;5.178;2022-12-07T07:25:50;101577.59;;;2.33;100.00
58975;BME280;44751;52.236;5.178;2022-12-07T07:28:17;101586.34;;;2.22;100.00
58975;BME280;44751;52.236;5.178;2022-12-07T07:30:44;101588.56;;;2.15;100.00
58975;BME280;44751;52.236;5.178;2022-12-07T07:33:11;101594.63;;;2.17;100.00
58975;BME280;44751;52.236;5.178;2022-12-07T07:35:38;101596.88;;;2.11;100.00
58975;BME280;44751;52.236;5.178;2022-12-07T07:38:05;101593.25;;;2.12;100.00
58975;BME280;44751;52.236;5.178;2022-12-07T07:40:32;101593.91;;;2.15;100.00
58975;BME280;44751;52.236;5.178;2022-12-07T07:42:58;101589.75;;;2.24;100.00
58975;BME280;44751;52.236;5.178;2022-12-07T07:45:26;101584.44;;;2.24;100.00
58975;BME280;44751;52.236;5.178;2022-12-07T07:47:53;101594.31;;;2.22;100.00
58975;BME280;44751;52.236;5.178;2022-12-07T07:50:20;101590.81;;;2.35;100.00
58975;BME280;44751;52.236;5.178;2022-12-07T07:52:46;101590.06;;;2.45;100.00
58975;BME280;44751;52.236;5.178;2022-12-07T07:55:14;101596.97;;;2.48;100.00
58975;BME280;44751;52.236;5.178;2022-12-07T07:57:41;101605.94;;;2.60;100.00
58975;BME280;44751;52.236;5.178;2022-12-07T08:00:12;101609.00;;;2.80;100.00
58975;BME280;44751;52.236;5.178;2022-12-07T08:02:40;101603.88;;;2.90;100.00
58975;BME280;44751;52.236;5.178;2022-12-07T08:05:07;101598.94;;;2.96;100.00
58975;BME280;44751;52.236;5.178;2022-12-07T08:07:34;101603.59;;;3.06;100.00
58975;BME280;44751;52.236;5.178;2022-12-07T08:10:01;101598.84;;;2.98;100.00
58975;BME280;44751;52.236;5.178;2022-12-07T08:12:29;101600.84;;;2.94;100.00
58975;BME280;44751;52.236;5.178;2022-12-07T08:14:56;101598.19;;;2.94;100.00
58975;BME280;44751;52.236;5.178;2022-12-07T08:17:22;101606.63;;;2.88;100.00
58975;BME280;44751;52.236;5.178;2022-12-07T08:19:49;101602.16;;;2.89;100.00
58975;BME280;44751;52.236;5.178;2022-12-07T08:22:15;101619.19;;;2.86;100.00
58975;BME280;44751;52.236;5.178;2022-12-07T08:24:41;101614.94;;;2.96;100.00
58975;BME280;44751;52.236;5.178;2022-12-07T08:27:08;101615.91;;;2.95;100.00
58975;BME280;44751;52.236;5.178;2022-12-07T08:29:36;101605.31;;;3.07;100.00
58975;BME280;44751;52.236;5.178;2022-12-07T08:32:03;101603.38;;;3.09;100.00
58975;BME280;44751;52.236;5.178;2022-12-07T08:34:29;101620.31;;;3.21;100.00
58975;BME280;44751;52.236;5.178;2022-12-07T08:36:55;101620.81;;;3.26;100.00
58975;BME280;44751;52.236;5.178;2022-12-07T08:39:22;101630.53;;;3.27;100.00
58975;BME280;44751;52.236;5.178;2022-12-07T08:41:48;101614.31;;;3.30;100.00
58975;BME280;44751;52.236;5.178;2022-12-07T08:44:15;101620.59;;;3.29;100.00
58975;BME280;44751;52.236;5.178;2022-12-07T08:46:51;101604.88;;;3.38;100.00
58975;BME280;44751;52.236;5.178;2022-12-07T08:49:24;101597.78;;;3.49;100.00
58975;BME280;44751;52.236;5.178;2022-12-07T08:51:53;101591.84;;;3.46;100.00
58975;BME280;44751;52.236;5.178;2022-12-07T08:54:21;101586.78;;;3.54;100.00
58975;BME280;44751;52.236;5.178;2022-12-07T08:56:48;101587.22;;;3.48;100.00
58975;BME280;44751;52.236;5.178;2022-12-07T08:59:17;101593.47;;;3.60;100.00
58975;BME280;44751;52.236;5.178;2022-12-07T09:01:44;101593.53;;;3.71;100.00
58975;BME280;44751;52.236;5.178;2022-12-07T09:04:12;101587.66;;;3.66;100.00
58975;BME280;44751;52.236;5.178;2022-12-07T09:06:38;101592.78;;;3.69;100.00
58975;BME280;44751;52.236;5.178;2022-12-07T09:09:05;101597.84;;;3.61;100.00
58975;BME280;44751;52.236;5.178;2022-12-07T09:11:35;101599.38;;;3.52;100.00
58975;BME280;44751;52.236;5.178;2022-12-07T09:14:01;101591.09;;;3.44;100.00
58975;BME280;44751;52.236;5.178;2022-12-07T09:16:29;101598.66;;;3.50;100.00
58975;BME280;44751;52.236;5.178;2022-12-07T09:18:56;101601.19;;;3.52;100.00
58975;BME280;44751;52.236;5.178;2022-12-07T09:21:22;101603.28;;;3.59;100.00
58975;BME280;44751;52.236;5.178;2022-12-07T09:23:49;101595.66;;;3.66;100.00
58975;BME280;44751;52.236;5.178;2022-12-07T09:26:17;101603.94;;;3.74;100.00
58975;BME280;44751;52.236;5.178;2022-12-07T09:28:48;101609.22;;;3.87;100.00
58975;BME280;44751;52.236;5.178;2022-12-07T09:31:14;101591.03;;;3.93;100.00
58975;BME280;44751;52.236;5.178;2022-12-07T09:33:41;101601.63;;;4.06;100.00
58975;BME280;44751;52.236;5.178;2022-12-07T09:36:07;101603.44;;;4.05;100.00
58975;BME280;44751;52.236;5.178;2022-12-07T09:38:34;101605.84;;;3.97;100.00
58975;BME280;44751;52.236;5.178;2022-12-07T09:41:06;101596.75;;;3.99;100.00
58975;BME280;44751;52.236;5.178;2022-12-07T09:43:35;101600.16;;;4.02;100.00
58975;BME280;44751;52.236;5.178;2022-12-07T09:46:03;101597.09;;;3.95;100.00
58975;BME280;44751;52.236;5.178;2022-12-07T09:48:32;101593.72;;;4.04;100.00
58975;BME280;44751;52.236;5.178;2022-12-07T09:51:03;101593.84;;;4.03;100.00
58975;BME280;44751;52.236;5.178;2022-12-07T09:53:37;101592.50;;;4.08;100.00
58975;BME280;44751;52.236;5.178;2022-12-07T09:56:05;101588.78;;;4.22;100.00
58975;BME280;44751;52.236;5.178;2022-12-07T09:58:35;101592.69;;;4.30;100.00
58975;BME280;44751;52.236;5.178;2022-12-07T10:01:12;101586.97;;;4.23;100.00
58975;BME280;44751;52.236;5.178;2022-12-07T10:03:42;101584.41;;;4.21;100.00
58975;BME280;44751;52.236;5.178;2022-12-07T10:06:12;101583.28;;;4.01;100.00
58975;BME280;44751;52.236;5.178;2022-12-07T10:08:39;101587.03;;;3.98;100.00
58975;BME280;44751;52.236;5.178;2022-12-07T10:11:06;101583.31;;;4.12;100.00
58975;BME280;44751;52.236;5.178;2022-12-07T10:13:46;101572.97;;;4.88;100.00
58975;BME280;44751;52.236;5.178;2022-12-07T10:16:37;101575.03;;;5.19;100.00
58975;BME280;44751;52.236;5.178;2022-12-07T10:22:07;101578.34;;;5.65;100.00
58975;BME280;44751;52.236;5.178;2022-12-07T10:24:35;101573.88;;;5.87;100.00
58975;BME280;44751;52.236;5.178;2022-12-07T10:27:04;101571.66;;;5.92;100.00
58975;BME280;44751;52.236;5.178;2022-12-07T10:29:33;101566.84;;;5.53;100.00
58975;BME280;44751;52.236;5.178;2022-12-07T10:34:34;101558.25;;;5.05;100.00
58975;BME280;44751;52.236;5.178;2022-12-07T10:39:53;101558.81;;;5.20;100.00
58975;BME280;44751;52.236;5.178;2022-12-07T10:44:48;101564.91;;;5.22;100.00
58975;BME280;44751;52.236;5.178;2022-12-07T10:47:36;101555.47;;;5.07;100.00
58975;BME280;44751;52.236;5.178;2022-12-07T10:50:29;101558.66;;;5.00;100.00
58975;BME280;44751;52.236;5.178;2022-12-07T10:53:13;101551.69;;;4.98;100.00
58975;BME280;44751;52.236;5.178;2022-12-07T10:59:26;101546.53;;;4.85;100.00
58975;BME280;44751;52.236;5.178;2022-12-07T11:08:10;101535.22;;;4.81;100.00
58975;BME280;44751;52.236;5.178;2022-12-07T11:11:04;101528.31;;;4.67;100.00
58975;BME280;44751;52.236;5.178;2022-12-07T11:13:55;101523.94;;;4.55;100.00
58975;BME280;44751;52.236;5.178;2022-12-07T11:19:11;101524.56;;;4.58;100.00
58975;BME280;44751;52.236;5.178;2022-12-07T11:21:55;101524.50;;;4.81;100.00
58975;BME280;44751;52.236;5.178;2022-12-07T11:24:29;101525.94;;;4.97;100.00
58975;BME280;44751;52.236;5.178;2022-12-07T11:27:27;101512.69;;;4.95;100.00
58975;BME280;44751;52.236;5.178;2022-12-07T11:30:08;101519.78;;;4.85;100.00
58975;BME280;44751;52.236;5.178;2022-12-07T11:38:10;101506.88;;;4.90;100.00
58975;BME280;44751;52.236;5.178;2022-12-07T11:40:40;101502.75;;;4.86;100.00
58975;BME280;44751;52.236;5.178;2022-12-07T11:43:13;101494.75;;;4.86;100.00
58975;BME280;44751;52.236;5.178;2022-12-07T11:45:42;101499.75;;;4.79;100.00
58975;BME280;44751;52.236;5.178;2022-12-07T11:48:31;101490.09;;;4.88;100.00
58975;BME280;44751;52.236;5.178;2022-12-07T11:51:00;101495.28;;;5.01;100.00
58975;BME280;44751;52.236;5.178;2022-12-07T11:53:37;101493.94;;;5.07;100.00
58975;BME280;44751;52.236;5.178;2022-12-07T12:03:54;101478.44;;;5.22;100.00
58975;BME280;44751;52.236;5.178;2022-12-07T12:06:22;101477.16;;;5.37;100.00
58975;BME280;44751;52.236;5.178;2022-12-07T12:20:26;101491.75;;;6.18;100.00
58975;BME280;44751;52.236;5.178;2022-12-07T12:23:00;101484.84;;;5.94;100.00
58975;BME280;44751;52.236;5.178;2022-12-07T12:25:51;101498.03;;;5.22;100.00
58975;BME280;44751;52.236;5.178;2022-12-07T12:28:35;101494.50;;;4.77;100.00
58975;BME280;44751;52.236;5.178;2022-12-07T12:33:53;101471.88;;;4.26;100.00
58975;BME280;44751;52.236;5.178;2022-12-07T12:36:27;101457.78;;;4.24;100.00
58975;BME280;44751;52.236;5.178;2022-12-07T12:46:59;101453.78;;;4.07;100.00
58975;BME280;44751;52.236;5.178;2022-12-07T12:55:00;101438.50;;;4.09;100.00
58975;BME280;44751;52.236;5.178;2022-12-07T12:57:30;101435.94;;;4.19;100.00
58975;BME280;44751;52.236;5.178;2022-12-07T12:59:58;101431.41;;;4.31;100.00
58975;BME280;44751;52.236;5.178;2022-12-07T13:02:34;101428.16;;;4.38;100.00
58975;BME280;44751;52.236;5.178;2022-12-07T13:05:17;101437.84;;;4.51;100.00
58975;BME280;44751;52.236;5.178;2022-12-07T13:26:22;101414.09;;;4.69;100.00
58975;BME280;44751;52.236;5.178;2022-12-07T13:31:31;101412.72;;;4.86;100.00
58975;BME280;44751;52.236;5.178;2022-12-07T13:33:58;101408.94;;;4.89;100.00
58975;BME280;44751;52.236;5.178;2022-12-07T13:36:28;101400.31;;;4.85;100.00
58975;BME280;44751;52.236;5.178;2022-12-07T13:41:42;101394.88;;;4.75;100.00
58975;BME280;44751;52.236;5.178;2022-12-07T13:44:13;101389.06;;;4.70;100.00
58975;BME280;44751;52.236;5.178;2022-12-07T13:47:06;101376.56;;;4.71;100.00
58975;BME280;44751;52.236;5.178;2022-12-07T13:49:48;101378.38;;;4.70;100.00
58975;BME280;44751;52.236;5.178;2022-12-07T13:52:18;101377.38;;;4.71;100.00
58975;BME280;44751;52.236;5.178;2022-12-07T13:54:56;101380.91;;;4.72;100.00
58975;BME280;44751;52.236;5.178;2022-12-07T13:57:25;101373.41;;;4.65;100.00
58975;BME280;44751;52.236;5.178;2022-12-07T13:59:52;101378.50;;;4.69;100.00
58975;BME280;44751;52.236;5.178;2022-12-07T14:02:26;101372.91;;;4.72;100.00
58975;BME280;44751;52.236;5.178;2022-12-07T14:05:12;101376.28;;;4.74;100.00
58975;BME280;44751;52.236;5.178;2022-12-07T14:07:54;101371.78;;;4.74;100.00
58975;BME280;44751;52.236;5.178;2022-12-07T14:10:36;101376.16;;;4.75;100.00
58975;BME280;44751;52.236;5.178;2022-12-07T14:13:21;101374.22;;;4.77;100.00
58975;BME280;44751;52.236;5.178;2022-12-07T14:15:52;101366.13;;;4.68;100.00
58975;BME280;44751;52.236;5.178;2022-12-07T14:18:34;101369.91;;;4.65;100.00
58975;BME280;44751;52.236;5.178;2022-12-07T14:21:16;101366.63;;;4.61;100.00
58975;BME280;44751;52.236;5.178;2022-12-07T14:23:43;101354.03;;;4.52;100.00
58975;BME280;44751;52.236;5.178;2022-12-07T14:26:14;101359.56;;;4.60;100.00
58975;BME280;44751;52.236;5.178;2022-12-07T14:28:43;101345.78;;;4.44;100.00
58975;BME280;44751;52.236;5.178;2022-12-07T14:31:18;101355.25;;;4.48;100.00
58975;BME280;44751;52.236;5.178;2022-12-07T14:33:45;101354.22;;;4.60;100.00
58975;BME280;44751;52.236;5.178;2022-12-07T14:36:12;101344.78;;;4.56;100.00
58975;BME280;44751;52.236;5.178;2022-12-07T14:38:40;101348.56;;;4.54;100.00
58975;BME280;44751;52.236;5.178;2022-12-07T14:41:17;101359.28;;;4.42;100.00
58975;BME280;44751;52.236;5.178;2022-12-07T14:44:12;101358.16;;;4.45;100.00
58975;BME280;44751;52.236;5.178;2022-12-07T14:46:38;101352.00;;;4.44;100.00
58975;BME280;44751;52.236;5.178;2022-12-07T14:49:05;101353.94;;;4.42;100.00
58975;BME280;44751;52.236;5.178;2022-12-07T14:51:39;101352.84;;;4.33;100.00
58975;BME280;44751;52.236;5.178;2022-12-07T14:54:13;101352.50;;;4.26;100.00
58975;BME280;44751;52.236;5.178;2022-12-07T14:56:40;101348.84;;;4.28;100.00